Time;durP1;ratioP1;P1;durP2;ratioP2;P2;SDS_P1;SDS_P2;PMS_P1;PMS_P2;Temp;Humidity;BMP_temperature;BMP_pressure;BME280_temperature;BME280_humidity;BME280_pressure;Samples;Min_cycle;Max_cycle;Signal;HPM_P1;HPM_P2
2023/09/21 00:00:19;;;;;;;3.8;2.3;;;;;;;16.18;91.01758;930.8698;;;;
2023/09/21 00:02:28;;;;;;;2.8;2;;;;;;;16.19;90.58008;930.847;;;;
2023/09/21 00:04:54;;;;;;;2.5;2.2;;;;;;;16.19;90.64941;930.8013;;;;
2023/09/21 00:07:18;;;;;;;2.8;2.2;;;;;;;16.25;89.99316;930.8008;;;;
2023/09/21 00:09:44;;;;;;;3.2;2.3;;;;;;;16.21;89.85645;930.767;;;;
2023/09/21 00:12:10;;;;;;;3.3;2.2;;;;;;;16.15;90.36426;930.7901;;;;
2023/09/21 00:14:35;;;;;;;2.9;2;;;;;;;16.24;89.98926;930.7576;;;;
2023/09/21 00:17:00;;;;;;;2.6;2;;;;;;;16.27;89.82129;930.7562;;;;
2023/09/21 00:19:25;;;;;;;2.8;2;;;;;;;16.3;89.72266;930.7065;;;;
2023/09/21 00:21:50;;;;;;;2.1;1.9;;;;;;;16.28;89.6748;930.7051;;;;
2023/09/21 00:24:15;;;;;;;3.3;2.1;;;;;;;16.2;90.25781;930.6443;;;;
2023/09/21 00:26:40;;;;;;;4;1.9;;;;;;;16.15;90.76855;930.5853;;;;
2023/09/21 00:29:07;;;;;;;2.9;1.6;;;;;;;16.12;90.91406;930.5458;;;;
2023/09/21 00:31:30;;;;;;;3.6;2.2;;;;;;;16.14;90.81348;930.522;;;;
2023/09/21 00:33:57;;;;;;;2.4;2;;;;;;;16.08;90.88086;930.4537;;;;
2023/09/21 00:36:24;;;;;;;2.9;2.3;;;;;;;16.05;91.34961;930.4641;;;;
2023/09/21 00:38:46;;;;;;;2.7;2.1;;;;;;;16.11;90.85352;930.4699;;;;
2023/09/21 00:41:11;;;;;;;3.4;2.3;;;;;;;15.99;91.08203;930.4764;;;;
2023/09/21 00:43:36;;;;;;;2.2;2;;;;;;;15.98;91.47363;930.4462;;;;
2023/09/21 00:46:04;;;;;;;4.8;2.2;;;;;;;16;91.43262;930.4594;;;;
2023/09/21 00:48:33;;;;;;;3.7;2.2;;;;;;;16.18;90.54297;930.4103;;;;
2023/09/21 00:50:54;;;;;;;4.1;1.9;;;;;;;16.27;89.625;930.3296;;;;
2023/09/21 00:53:19;;;;;;;2.7;2.1;;;;;;;16.2;89.43848;930.2699;;;;
2023/09/21 00:55:44;;;;;;;2.7;1.8;;;;;;;16.2;89.45996;930.2902;;;;
2023/09/21 00:58:10;;;;;;;3.9;2.7;;;;;;;16.19;89.49219;930.2871;;;;
2023/09/21 01:00:36;;;;;;;2.8;2.2;;;;;;;16.08;90.01563;930.2737;;;;
2023/09/21 01:03:07;;;;;;;2.9;2.1;;;;;;;16.17;89.53516;930.2194;;;;
2023/09/21 01:05:26;;;;;;;5.2;2.1;;;;;;;16.17;89.63867;930.221;;;;
2023/09/21 01:07:55;;;;;;;2.4;2;;;;;;;16;90.28809;930.188;;;;
2023/09/21 01:10:21;;;;;;;3.9;2.2;;;;;;;16.07;90.31055;930.1191;;;;
2023/09/21 01:12:48;;;;;;;3.4;2.2;;;;;;;16.03;90.39551;930.0912;;;;
2023/09/21 01:15:10;;;;;;;3.1;1.9;;;;;;;16.11;90.26367;930.0737;;;;
2023/09/21 01:17:33;;;;;;;3;1.9;;;;;;;16.06;90.12598;930.0118;;;;
2023/09/21 01:19:58;;;;;;;2.9;2.1;;;;;;;16.05;90.68066;930.0367;;;;
2023/09/21 01:22:23;;;;;;;3.1;1.9;;;;;;;16.19;89.90918;930.0109;;;;
2023/09/21 01:24:49;;;;;;;5.2;2.1;;;;;;;16.19;89.72363;929.9949;;;;
2023/09/21 01:27:17;;;;;;;2.1;1.8;;;;;;;16.17;89.51172;929.9077;;;;
2023/09/21 01:29:41;;;;;;;3.5;2.3;;;;;;;16.26;89.56641;929.9611;;;;
2023/09/21 01:32:06;;;;;;;3.1;2.1;;;;;;;16.28;89.30469;929.8289;;;;
2023/09/21 01:34:31;;;;;;;3.1;2;;;;;;;16.19;89.82813;929.8999;;;;
2023/09/21 01:36:57;;;;;;;2.9;2;;;;;;;16.14;89.72656;929.9174;;;;
2023/09/21 01:39:22;;;;;;;4.1;2.3;;;;;;;16.21;89.25488;929.8119;;;;
2023/09/21 01:41:53;;;;;;;2.8;2.3;;;;;;;16.3;89.21387;929.7955;;;;
2023/09/21 01:44:15;;;;;;;4.3;2.3;;;;;;;16.31;88.82227;929.7695;;;;
2023/09/21 01:46:41;;;;;;;2.2;2;;;;;;;16.27;88.9209;929.7463;;;;
2023/09/21 01:49:06;;;;;;;2;1.8;;;;;;;16.23;89.52441;929.7626;;;;
2023/09/21 01:51:32;;;;;;;4.2;2.2;;;;;;;16.08;90.17773;929.6851;;;;
2023/09/21 01:53:58;;;;;;;2.7;2.3;;;;;;;16.06;90.50781;929.6183;;;;
2023/09/21 01:56:23;;;;;;;2.4;2;;;;;;;16;90.67969;929.5978;;;;
2023/09/21 01:58:49;;;;;;;4.3;2.1;;;;;;;16.07;90.60352;929.4853;;;;
2023/09/21 02:01:16;;;;;;;2.8;2.1;;;;;;;16.1;89.99414;929.5521;;;;
2023/09/21 02:03:39;;;;;;;3.2;1.9;;;;;;;16.03;90.56934;929.5613;;;;
2023/09/21 02:06:05;;;;;;;4.3;2.1;;;;;;;16.11;90.31055;929.5583;;;;
2023/09/21 02:08:33;;;;;;;3.7;2.3;;;;;;;16.19;89.99023;929.5145;;;;
2023/09/21 02:10:56;;;;;;;4.7;2.1;;;;;;;16.26;89.53027;929.4021;;;;
2023/09/21 02:13:21;;;;;;;2.9;2;;;;;;;16.21;89.53223;929.3878;;;;
2023/09/21 02:15:47;;;;;;;3.2;2.2;;;;;;;16.12;90.21973;929.2825;;;;
2023/09/21 02:18:11;;;;;;;3.4;2.4;;;;;;;16.06;90.66895;929.3597;;;;
2023/09/21 02:20:38;;;;;;;2.9;2.5;;;;;;;15.85;91.86328;929.4023;;;;
2023/09/21 02:23:02;;;;;;;3.2;2.2;;;;;;;15.71;92.17969;929.2957;;;;
2023/09/21 02:25:26;;;;;;;4.9;2.6;;;;;;;15.81;92.02637;929.2626;;;;
2023/09/21 02:27:51;;;;;;;5.7;2.4;;;;;;;15.85;91.75879;929.2506;;;;
2023/09/21 02:30:17;;;;;;;2.8;2.1;;;;;;;15.82;91.87891;929.2756;;;;
2023/09/21 02:32:42;;;;;;;4.5;2.9;;;;;;;15.9;91.46777;929.2527;;;;
2023/09/21 02:35:08;;;;;;;3.2;2.1;;;;;;;15.96;90.81055;929.2447;;;;
2023/09/21 02:37:32;;;;;;;3;2.1;;;;;;;16.01;90.3457;929.22;;;;
2023/09/21 02:39:57;;;;;;;2.9;1.9;;;;;;;16.08;90.08301;929.2194;;;;
2023/09/21 02:42:23;;;;;;;3.2;2.2;;;;;;;16.09;89.69141;929.2015;;;;
2023/09/21 02:44:47;;;;;;;4;2.2;;;;;;;16.17;89.19922;929.1365;;;;
2023/09/21 02:47:13;;;;;;;2.8;2;;;;;;;16.12;89.41016;929.1234;;;;
2023/09/21 02:49:38;;;;;;;3.9;2;;;;;;;16.05;89.69824;929.1085;;;;
2023/09/21 02:52:06;;;;;;;3;2.4;;;;;;;16;89.84863;929.1512;;;;
2023/09/21 02:54:32;;;;;;;3.4;2.2;;;;;;;15.97;90.21094;929.0678;;;;
2023/09/21 02:56:57;;;;;;;3.3;2;;;;;;;15.86;90.70898;929.0522;;;;
2023/09/21 02:59:22;;;;;;;2.7;2;;;;;;;15.84;90.74023;929.0919;;;;
2023/09/21 03:01:47;;;;;;;2.6;2.2;;;;;;;15.76;91.06836;929.0608;;;;
2023/09/21 03:04:13;;;;;;;2.9;2.4;;;;;;;15.75;91.23926;929.0684;;;;
2023/09/21 03:06:38;;;;;;;4.2;2.2;;;;;;;15.87;90.66309;929.0134;;;;
2023/09/21 03:09:07;;;;;;;4.2;2.3;;;;;;;15.93;89.86621;929.0809;;;;
2023/09/21 03:11:30;;;;;;;4.7;2.2;;;;;;;15.91;89.38867;929.0485;;;;
2023/09/21 03:14:02;;;;;;;3.9;2.1;;;;;;;15.83;90.24121;929.057;;;;
2023/09/21 03:16:24;;;;;;;4;2.3;;;;;;;15.88;89.75293;929.0036;;;;
2023/09/21 03:18:49;;;;;;;2.9;2.2;;;;;;;15.91;89.5625;929.0661;;;;
2023/09/21 03:21:15;;;;;;;3.2;2.6;;;;;;;15.87;89.62402;928.9716;;;;
2023/09/21 03:23:44;;;;;;;3.3;2.4;;;;;;;15.87;89.65918;928.9211;;;;
2023/09/21 03:26:08;;;;;;;3.8;2.3;;;;;;;15.86;89.66895;928.8842;;;;
2023/09/21 03:28:37;;;;;;;6.8;2.5;;;;;;;15.83;90.2627;928.8331;;;;
2023/09/21 03:31:02;;;;;;;2.6;2;;;;;;;15.76;90.41113;928.7517;;;;
2023/09/21 03:33:31;;;;;;;2.6;2.1;;;;;;;15.6;91.2207;928.7668;;;;
2023/09/21 03:35:56;;;;;;;5.2;2.4;;;;;;;15.62;91.30566;928.7707;;;;
2023/09/21 03:38:27;;;;;;;2.8;2.1;;;;;;;15.65;90.76953;928.7361;;;;
2023/09/21 03:40:54;;;;;;;3.7;2.5;;;;;;;15.6;91.1748;928.7451;;;;
2023/09/21 03:43:22;;;;;;;4.9;2.7;;;;;;;15.6;91.10547;928.7484;;;;
2023/09/21 03:45:46;;;;;;;2.3;1.9;;;;;;;15.62;91.20117;928.7506;;;;
2023/09/21 03:48:12;;;;;;;3.3;2;;;;;;;15.59;91.18652;928.7092;;;;
2023/09/21 03:50:41;;;;;;;3.9;2.4;;;;;;;15.53;91.43652;928.745;;;;
2023/09/21 03:53:08;;;;;;;2.6;2.2;;;;;;;15.48;91.78516;928.6972;;;;
2023/09/21 03:55:31;;;;;;;5;2.5;;;;;;;15.41;92.12598;928.6555;;;;
2023/09/21 03:58:02;;;;;;;4.5;2.4;;;;;;;15.31;92.34961;928.6266;;;;
2023/09/21 04:02:31;;;;;;;4.3;2.4;;;;;;;14.87;94.74707;928.5296;;;;
2023/09/21 04:05:12;;;;;;;3.4;2.5;;;;;;;14.95;94.86816;928.6208;;;;
2023/09/21 04:07:29;;;;;;;2.7;2.2;;;;;;;15.03;94.21875;928.5742;;;;
2023/09/21 04:10:01;;;;;;;4.5;2.6;;;;;;;15.01;94.32813;928.5617;;;;
2023/09/21 04:12:25;;;;;;;4.6;2.3;;;;;;;14.88;94.7627;928.543;;;;
2023/09/21 04:14:51;;;;;;;6.7;2.5;;;;;;;14.83;95.05273;928.5105;;;;
2023/09/21 04:17:16;;;;;;;3.9;2.4;;;;;;;14.83;94.99316;928.4841;;;;
2023/09/21 04:19:41;;;;;;;3.7;2.3;;;;;;;14.71;95.52051;928.4872;;;;
2023/09/21 04:22:06;;;;;;;4.1;2.4;;;;;;;14.75;95.16113;928.5047;;;;
2023/09/21 04:24:36;;;;;;;3.4;2.4;;;;;;;14.76;95.02344;928.4797;;;;
2023/09/21 04:27:03;;;;;;;2.7;2.4;;;;;;;14.7;95.43555;928.4995;;;;
2023/09/21 04:29:27;;;;;;;4.3;2.5;;;;;;;14.57;96.43164;928.4156;;;;
2023/09/21 04:32:00;;;;;;;3.9;2.6;;;;;;;14.63;96.27344;928.486;;;;
2023/09/21 04:34:25;;;;;;;4.5;2.9;;;;;;;14.75;95.43652;928.4888;;;;
2023/09/21 04:36:55;;;;;;;5;2.3;;;;;;;14.73;95.24805;928.5422;;;;
2023/09/21 04:39:21;;;;;;;4.1;2.1;;;;;;;14.67;95.56836;928.5298;;;;
2023/09/21 04:41:46;;;;;;;4.1;2.1;;;;;;;14.6;96.07129;928.5303;;;;
2023/09/21 04:44:18;;;;;;;4;2.3;;;;;;;14.64;95.7793;928.4496;;;;
2023/09/21 04:46:47;;;;;;;2.8;2.1;;;;;;;14.64;95.43555;928.3942;;;;
2023/09/21 04:49:20;;;;;;;4.4;1.9;;;;;;;14.73;94.4873;928.3698;;;;
2023/09/21 04:51:49;;;;;;;5.8;2.6;;;;;;;14.84;93.8877;928.3549;;;;
2023/09/21 04:54:22;;;;;;;7;5.6;;;;;;;14.9;93.41699;928.4303;;;;
2023/09/21 04:56:46;;;;;;;6.7;4.3;;;;;;;14.93;93.01758;928.4026;;;;
2023/09/21 04:59:18;;;;;;;4.1;2.5;;;;;;;14.82;93.77832;928.3906;;;;
2023/09/21 05:01:41;;;;;;;2.9;2.1;;;;;;;14.78;94.30078;928.4152;;;;
2023/09/21 05:04:09;;;;;;;3.4;2.7;;;;;;;14.87;93.83594;928.4311;;;;
2023/09/21 05:06:34;;;;;;;4.4;2.6;;;;;;;14.94;93.14746;928.3644;;;;
2023/09/21 05:09:02;;;;;;;4.7;3;;;;;;;14.94;93.13672;928.2972;;;;
2023/09/21 05:11:27;;;;;;;2.9;2.7;;;;;;;15;92.71191;928.2653;;;;
2023/09/21 05:13:58;;;;;;;4.9;2.7;;;;;;;14.99;92.59277;928.3178;;;;
2023/09/21 05:16:25;;;;;;;4.2;2.5;;;;;;;15.04;92.58105;928.2206;;;;
2023/09/21 05:18:50;;;;;;;4.4;2.8;;;;;;;14.98;92.52344;928.2385;;;;
2023/09/21 05:21:15;;;;;;;4.8;2.8;;;;;;;14.95;92.6543;928.3137;;;;
2023/09/21 05:23:45;;;;;;;3.9;2.6;;;;;;;14.99;92.50195;928.4034;;;;
2023/09/21 05:26:09;;;;;;;3.8;2.6;;;;;;;14.94;92.58301;928.451;;;;
2023/09/21 05:28:40;;;;;;;4.5;3;;;;;;;14.87;93.70898;928.4375;;;;
2023/09/21 05:31:09;;;;;;;4.1;2.8;;;;;;;14.84;93.95703;928.4429;;;;
2023/09/21 05:33:32;;;;;;;4.9;2.7;;;;;;;15;93.08984;928.4048;;;;
2023/09/21 05:36:04;;;;;;;6;3.1;;;;;;;14.96;92.58887;928.3969;;;;
2023/09/21 05:38:26;;;;;;;4;3.1;;;;;;;14.9;93.16309;928.4303;;;;
2023/09/21 05:40:55;;;;;;;5.9;2.5;;;;;;;14.85;92.96875;928.3561;;;;
2023/09/21 05:43:24;;;;;;;5.9;2.4;;;;;;;15;94.03809;928.3222;;;;
2023/09/21 05:45:49;;;;;;;4.9;2.5;;;;;;;15.43;91.87988;928.3173;;;;
2023/09/21 05:48:19;;;;;;;4.2;2.3;;;;;;;15.94;89.15332;928.3828;;;;
2023/09/21 05:50:47;;;;;;;4.6;2.4;;;;;;;16.46;86.96875;928.3417;;;;
2023/09/21 05:53:13;;;;;;;4.4;2.3;;;;;;;16.92;83.91797;928.3098;;;;
2023/09/21 05:55:38;;;;;;;6.6;2.7;;;;;;;17.43;81.78809;928.2985;;;;
2023/09/21 05:58:06;;;;;;;6.5;2.2;;;;;;;17.94;79.2959;928.2463;;;;
2023/09/21 06:00:30;;;;;;;3.7;2.3;;;;;;;18.14;75.86914;928.1937;;;;
2023/09/21 06:03:00;;;;;;;4.6;2.3;;;;;;;18.23;76.30176;928.1456;;;;
2023/09/21 06:05:25;;;;;;;6.3;2;;;;;;;18.02;76.77637;928.0667;;;;
2023/09/21 06:07:54;;;;;;;4.6;2.3;;;;;;;18.17;76.6875;928.1321;;;;
2023/09/21 06:10:18;;;;;;;3.9;2.2;;;;;;;18;77.40039;928.1258;;;;
2023/09/21 06:12:47;;;;;;;5;3.1;;;;;;;18.12;77.32813;928.118;;;;
2023/09/21 06:15:16;;;;;;;7.4;3.1;;;;;;;18.31;76.29395;928.0911;;;;
2023/09/21 06:17:41;;;;;;;7;3.6;;;;;;;18.54;75.05176;928.025;;;;
2023/09/21 06:20:09;;;;;;;8.4;3.5;;;;;;;17.91;76.6875;928.0277;;;;
2023/09/21 06:22:34;;;;;;;6;2.6;;;;;;;17.65;77.26855;928.0087;;;;
2023/09/21 06:25:02;;;;;;;6.4;3.4;;;;;;;18.45;77.51465;927.9886;;;;
2023/09/21 06:27:26;;;;;;;5.6;2.8;;;;;;;18.62;73.50781;927.9987;;;;
2023/09/21 06:29:52;;;;;;;6.1;2.9;;;;;;;18.31;75.03809;927.9653;;;;
2023/09/21 06:32:18;;;;;;;4.7;2.7;;;;;;;18.42;76.85938;927.9988;;;;
2023/09/21 06:34:43;;;;;;;6.7;2.6;;;;;;;18.65;74.2002;927.9689;;;;
2023/09/21 06:37:14;;;;;;;5.1;2.4;;;;;;;18.56;75.56836;927.8792;;;;
2023/09/21 06:39:39;;;;;;;4.2;2.2;;;;;;;18.86;75.24707;927.8289;;;;
2023/09/21 06:42:05;;;;;;;4;1.9;;;;;;;19.16;72.93457;927.8286;;;;
2023/09/21 06:44:30;;;;;;;5;2.4;;;;;;;18.92;74.44141;927.8234;;;;
2023/09/21 06:46:55;;;;;;;7.6;2.3;;;;;;;19.05;75.84863;927.7324;;;;
2023/09/21 06:49:23;;;;;;;5.6;2.3;;;;;;;19.26;73.41797;927.7399;;;;
2023/09/21 06:51:49;;;;;;;3.2;2;;;;;;;19.46;69.1377;927.729;;;;
2023/09/21 06:54:17;;;;;;;5.1;2.3;;;;;;;19.81;70.80273;927.7325;;;;
2023/09/21 06:56:45;;;;;;;2.9;1.7;;;;;;;19.88;70.45215;927.7369;;;;
2023/09/21 06:59:11;;;;;;;3.1;1.7;;;;;;;20.29;69.71191;927.6669;;;;
2023/09/21 07:01:39;;;;;;;4;1.6;;;;;;;20.83;68.13672;927.6522;;;;
2023/09/21 07:04:04;;;;;;;3;1.9;;;;;;;20.53;66.28027;927.5363;;;;
2023/09/21 07:06:32;;;;;;;1.7;1.6;;;;;;;20.37;67.2373;927.5323;;;;
2023/09/21 07:08:57;;;;;;;2.9;2;;;;;;;21.02;65.40625;927.4978;;;;
2023/09/21 07:11:24;;;;;;;2.5;1.8;;;;;;;21.53;62.7666;927.4625;;;;
2023/09/21 07:13:51;;;;;;;3.8;2;;;;;;;21.3;62.92188;927.4888;;;;
2023/09/21 07:16:18;;;;;;;3.3;2;;;;;;;21.96;62.19336;927.4916;;;;
2023/09/21 07:18:43;;;;;;;2.8;1.8;;;;;;;22.86;60.3584;927.5086;;;;
2023/09/21 07:21:10;;;;;;;4.3;2.3;;;;;;;23.33;57.76563;927.495;;;;
2023/09/21 07:23:36;;;;;;;2.3;1.8;;;;;;;24;56.00488;927.3864;;;;
2023/09/21 07:26:03;;;;;;;2.3;1.5;;;;;;;24.04;53.81836;927.3478;;;;
2023/09/21 07:28:29;;;;;;;3.3;1.7;;;;;;;24.51;53.9834;927.3304;;;;
2023/09/21 07:30:57;;;;;;;2.2;1.6;;;;;;;24.54;55.01172;927.3412;;;;
2023/09/21 07:33:22;;;;;;;1.8;1.5;;;;;;;24.65;52.72559;927.3531;;;;
2023/09/21 07:35:50;;;;;;;2.1;1.3;;;;;;;24.85;54.09375;927.368;;;;
2023/09/21 07:38:15;;;;;;;2.8;1.6;;;;;;;24.46;53.78809;927.3466;;;;
2023/09/21 07:40:42;;;;;;;3.3;1.4;;;;;;;25.01;53.11133;927.2598;;;;
2023/09/21 07:43:07;;;;;;;1.8;1.2;;;;;;;25.91;51.7041;927.2821;;;;
2023/09/21 07:45:33;;;;;;;2.6;1.3;;;;;;;26.96;48.13965;927.2636;;;;
2023/09/21 07:47:58;;;;;;;2.5;1.3;;;;;;;26.97;47.25195;927.2073;;;;
2023/09/21 07:50:27;;;;;;;1.9;1.5;;;;;;;26.36;48.39453;927.1829;;;;
2023/09/21 07:52:51;;;;;;;1.2;1.1;;;;;;;25.11;52.10742;927.1245;;;;
2023/09/21 07:55:17;;;;;;;2.9;1.3;;;;;;;24.62;52.29785;927.142;;;;
2023/09/21 07:57:42;;;;;;;1.2;1.1;;;;;;;24.94;52.90234;927.0778;;;;
2023/09/21 08:00:09;;;;;;;2.7;1.3;;;;;;;25.28;52.31641;927.144;;;;
2023/09/21 08:02:36;;;;;;;1.4;1.3;;;;;;;25.26;49.34961;927.147;;;;
2023/09/21 08:05:02;;;;;;;1.7;1.1;;;;;;;24.84;51.4502;927.1266;;;;
2023/09/21 08:07:27;;;;;;;2;1.1;;;;;;;24.95;51.45117;927.2469;;;;
2023/09/21 08:09:52;;;;;;;3.5;1.2;;;;;;;24.69;51.44531;927.1606;;;;
2023/09/21 08:12:17;;;;;;;2;1.1;;;;;;;24.45;52.00684;927.1398;;;;
2023/09/21 08:14:43;;;;;;;1.4;1.2;;;;;;;24.67;52.54004;927.1663;;;;
2023/09/21 08:17:13;;;;;;;4;1.5;;;;;;;24.12;52.94531;927.1608;;;;
2023/09/21 08:19:40;;;;;;;1.7;1.2;;;;;;;24.11;53.89844;927.0859;;;;
2023/09/21 08:22:05;;;;;;;2.9;1.2;;;;;;;23.79;53.66016;927.1322;;;;
2023/09/21 08:24:34;;;;;;;1.3;0.9;;;;;;;24.09;51.98828;927.0536;;;;
2023/09/21 08:26:58;;;;;;;2.1;1.2;;;;;;;24.49;51.76465;927.0016;;;;
2023/09/21 08:29:25;;;;;;;6;1.7;;;;;;;24.31;53.32227;926.9657;;;;
2023/09/21 08:31:50;;;;;;;1.1;1;;;;;;;24.62;50.85938;926.9825;;;;
2023/09/21 08:34:16;;;;;;;1.8;1.2;;;;;;;24.42;50.9541;926.9347;;;;
2023/09/21 08:36:44;;;;;;;2;1.1;;;;;;;24.55;51.97168;926.9847;;;;
2023/09/21 08:39:06;;;;;;;1.4;0.9;;;;;;;25.08;49.67285;926.9317;;;;
2023/09/21 08:41:35;;;;;;;1.5;1.1;;;;;;;25.37;49.53906;926.9232;;;;
2023/09/21 08:44:00;;;;;;;1.4;1;;;;;;;25.75;46.18945;926.8161;;;;
2023/09/21 08:46:25;;;;;;;2;1.1;;;;;;;26.3;46.86133;926.7776;;;;
2023/09/21 08:48:55;;;;;;;1;1;;;;;;;26.59;42.26074;926.7344;;;;
2023/09/21 08:51:18;;;;;;;2.3;1.2;;;;;;;26.19;42.52051;926.7212;;;;
2023/09/21 08:53:50;;;;;;;2.4;0.9;;;;;;;26.58;42.75879;926.6439;;;;
2023/09/21 08:56:12;;;;;;;3.3;1;;;;;;;26.5;43.75781;926.6089;;;;
2023/09/21 08:58:40;;;;;;;3;1.1;;;;;;;26.11;43.38672;926.5444;;;;
2023/09/21 09:01:02;;;;;;;1.3;1.1;;;;;;;26.61;45.55566;926.5441;;;;
2023/09/21 09:03:28;;;;;;;1.7;1.1;;;;;;;26.68;44.20117;926.4446;;;;
2023/09/21 09:05:53;;;;;;;2.3;1.3;;;;;;;26.73;42.92676;926.4459;;;;
2023/09/21 09:08:19;;;;;;;1.8;1.1;;;;;;;26.44;40.52051;926.4385;;;;
2023/09/21 09:10:44;;;;;;;2.5;1.1;;;;;;;26.61;42.48828;926.4239;;;;
2023/09/21 09:13:13;;;;;;;1.5;1.1;;;;;;;26.62;43.76855;926.4666;;;;
2023/09/21 09:15:38;;;;;;;3;1.1;;;;;;;26.92;41.33301;926.4146;;;;
2023/09/21 09:18:05;;;;;;;1.4;0.9;;;;;;;26.76;43.30859;926.4342;;;;
2023/09/21 09:20:30;;;;;;;1.9;0.9;;;;;;;26.86;43.31836;926.4138;;;;
2023/09/21 09:22:56;;;;;;;1.3;1;;;;;;;26.82;41.72656;926.4397;;;;
2023/09/21 09:25:23;;;;;;;1.1;0.9;;;;;;;26.84;41.81055;926.4091;;;;
2023/09/21 09:27:47;;;;;;;1.5;0.9;;;;;;;26.62;41.98145;926.402;;;;
2023/09/21 09:30:13;;;;;;;2.1;1;;;;;;;26.48;42.47656;926.4437;;;;
2023/09/21 09:32:41;;;;;;;3.4;1.5;;;;;;;26.89;42.10059;926.438;;;;
2023/09/21 09:35:04;;;;;;;3.2;1.3;;;;;;;26.92;43.81055;926.3972;;;;
2023/09/21 09:37:32;;;;;;;5.4;1.6;;;;;;;27.19;39.78125;926.3738;;;;
2023/09/21 09:39:56;;;;;;;1.3;1;;;;;;;27.08;42.21289;926.3748;;;;
2023/09/21 09:42:20;;;;;;;1.1;1;;;;;;;26.69;41.33594;926.2502;;;;
2023/09/21 09:44:48;;;;;;;2.4;1.2;;;;;;;26.51;42.75195;926.2542;;;;
2023/09/21 09:47:12;;;;;;;2.1;0.9;;;;;;;26.88;41.27051;926.1881;;;;
2023/09/21 09:49:38;;;;;;;1;0.9;;;;;;;26.74;43.4834;926.2403;;;;
2023/09/21 09:52:06;;;;;;;1.4;1;;;;;;;26.86;42.80859;926.2628;;;;
2023/09/21 09:54:27;;;;;;;1.6;0.9;;;;;;;27.2;40.69531;926.258;;;;
2023/09/21 09:56:53;;;;;;;1.9;0.9;;;;;;;27.06;41.91602;926.2119;;;;
2023/09/21 09:59:19;;;;;;;0.8;0.8;;;;;;;27.29;42.45898;926.1844;;;;
2023/09/21 10:01:44;;;;;;;1.4;0.9;;;;;;;27.37;41.11426;926.1309;;;;
2023/09/21 10:04:09;;;;;;;0.7;0.7;;;;;;;27.56;41.21387;926.137;;;;
2023/09/21 10:06:36;;;;;;;1.1;0.8;;;;;;;27.31;40.29004;926.1016;;;;
2023/09/21 10:09:02;;;;;;;2.1;1;;;;;;;26.76;42.3252;925.9138;;;;
2023/09/21 10:11:25;;;;;;;1.2;1;;;;;;;26.6;40.84277;925.822;;;;
2023/09/21 10:13:51;;;;;;;1.7;0.9;;;;;;;26.64;42.33789;925.7906;;;;
2023/09/21 10:16:17;;;;;;;1.4;1;;;;;;;26.61;43.21094;925.8412;;;;
2023/09/21 10:18:43;;;;;;;0.8;0.8;;;;;;;27.04;41.51074;925.8114;;;;
2023/09/21 10:21:08;;;;;;;3;0.8;;;;;;;27.4;41.95898;925.9568;;;;
2023/09/21 10:23:33;;;;;;;1.7;0.9;;;;;;;27.57;42.11719;925.955;;;;
2023/09/21 10:25:58;;;;;;;1.3;0.8;;;;;;;27.66;39.02734;925.9238;;;;
2023/09/21 10:28:27;;;;;;;0.9;0.8;;;;;;;27.45;40.05273;925.8828;;;;
2023/09/21 10:30:48;;;;;;;1;0.9;;;;;;;27.33;38.16895;925.8527;;;;
2023/09/21 10:33:15;;;;;;;0.7;0.7;;;;;;;27.44;39.13867;925.7659;;;;
2023/09/21 10:35:39;;;;;;;1.1;1;;;;;;;27.73;39.17578;925.7341;;;;
2023/09/21 10:38:06;;;;;;;1.6;0.9;;;;;;;27.32;38.16797;925.7117;;;;
2023/09/21 10:40:32;;;;;;;1.4;0.8;;;;;;;27.6;37.77637;925.6897;;;;
2023/09/21 10:42:58;;;;;;;2.4;1;;;;;;;28.08;37.84082;925.6445;;;;
2023/09/21 10:45:24;;;;;;;1.5;0.8;;;;;;;29.48;36.31348;925.5829;;;;
2023/09/21 10:47:52;;;;;;;1.2;0.7;;;;;;;29.18;36.63477;925.5853;;;;
2023/09/21 10:50:14;;;;;;;1.4;0.8;;;;;;;29.28;34.47461;925.5486;;;;
2023/09/21 10:52:42;;;;;;;0.6;0.6;;;;;;;29.69;35.29297;925.4819;;;;
2023/09/21 10:55:07;;;;;;;2.1;1;;;;;;;29.24;35.68652;925.3619;;;;
2023/09/21 10:57:34;;;;;;;0.6;0.6;;;;;;;28.66;36.0332;925.3679;;;;
2023/09/21 11:00:00;;;;;;;1.6;0.9;;;;;;;28.41;39.9248;925.3284;;;;
2023/09/21 11:02:26;;;;;;;1.6;0.7;;;;;;;27.8;38.20898;925.2999;;;;
2023/09/21 11:04:52;;;;;;;1.7;0.7;;;;;;;28.14;37.5;925.2332;;;;
2023/09/21 11:07:21;;;;;;;0.9;0.6;;;;;;;27.58;36.9668;925.3297;;;;
2023/09/21 11:09:46;;;;;;;1.7;0.8;;;;;;;28.12;37.53516;925.2436;;;;
2023/09/21 11:12:13;;;;;;;2.2;0.8;;;;;;;28.75;35.32617;925.2004;;;;
2023/09/21 11:14:35;;;;;;;1.8;0.7;;;;;;;28.58;34.75391;925.0678;;;;
2023/09/21 11:17:00;;;;;;;0.6;0.6;;;;;;;28.23;37.02148;925.0761;;;;
2023/09/21 11:19:25;;;;;;;0.7;0.6;;;;;;;28.91;34.81543;925.0258;;;;
2023/09/21 11:21:51;;;;;;;1.1;0.9;;;;;;;29.19;34.93164;925.0044;;;;
2023/09/21 11:24:16;;;;;;;0.6;0.6;;;;;;;29.13;34.21289;924.9073;;;;
2023/09/21 11:26:43;;;;;;;0.7;0.7;;;;;;;28.82;33.62988;924.8869;;;;
2023/09/21 11:29:08;;;;;;;1.7;0.7;;;;;;;28.93;34.93555;924.8067;;;;
2023/09/21 11:31:35;;;;;;;1.2;0.8;;;;;;;29.51;35.32715;924.7869;;;;
2023/09/21 11:34:00;;;;;;;0.8;0.7;;;;;;;28.77;35.41211;924.6682;;;;
2023/09/21 11:36:26;;;;;;;1.6;0.9;;;;;;;28.73;34.77832;924.6554;;;;
2023/09/21 11:38:51;;;;;;;1;0.6;;;;;;;28.92;35.04297;924.5879;;;;
2023/09/21 11:41:19;;;;;;;2;0.8;;;;;;;29.4;35.15137;924.5651;;;;
2023/09/21 11:43:44;;;;;;;1.2;0.9;;;;;;;29.54;34.08887;924.5463;;;;
2023/09/21 11:46:10;;;;;;;0.7;0.7;;;;;;;29.75;35.32129;924.4771;;;;
2023/09/21 11:48:36;;;;;;;1.4;0.8;;;;;;;30;33.96875;924.4736;;;;
2023/09/21 11:51:04;;;;;;;2;1;;;;;;;29.25;34.04395;924.3878;;;;
2023/09/21 11:53:28;;;;;;;1.6;0.8;;;;;;;29.58;35.3916;924.3808;;;;
2023/09/21 11:55:53;;;;;;;1;0.9;;;;;;;29.19;34.14648;924.3022;;;;
2023/09/21 11:58:20;;;;;;;1.2;0.6;;;;;;;28.93;34.43555;924.2799;;;;
2023/09/21 12:00:49;;;;;;;1.5;0.6;;;;;;;28.46;35.2207;924.2687;;;;
2023/09/21 12:03:12;;;;;;;1.1;0.9;;;;;;;28.29;34.8623;924.3187;;;;
2023/09/21 12:05:40;;;;;;;0.9;0.7;;;;;;;28.3;35.46973;924.1848;;;;
2023/09/21 12:08:05;;;;;;;1;0.7;;;;;;;27.78;36.06934;924.1385;;;;
2023/09/21 12:10:26;;;;;;;0.6;0.6;;;;;;;27.98;36.0498;924.2545;;;;
2023/09/21 12:12:53;;;;;;;0.7;0.7;;;;;;;28.25;35.39355;924.1573;;;;
2023/09/21 12:15:19;;;;;;;1.1;0.8;;;;;;;28.58;36.24023;924.1323;;;;
2023/09/21 12:17:44;;;;;;;1.7;0.8;;;;;;;28.24;35.27441;924.1486;;;;
2023/09/21 12:20:16;;;;;;;0.9;0.7;;;;;;;28.06;36.65039;924.162;;;;
2023/09/21 12:22:37;;;;;;;0.8;0.7;;;;;;;28.14;35.84863;923.9988;;;;
2023/09/21 12:25:02;;;;;;;0.7;0.7;;;;;;;27.67;36.54785;924.0119;;;;
2023/09/21 12:27:24;;;;;;;1.5;0.6;;;;;;;28.04;36.03125;923.9836;;;;
2023/09/21 12:29:52;;;;;;;0.8;0.7;;;;;;;28.17;36.2793;923.9995;;;;
2023/09/21 12:32:16;;;;;;;1.5;0.8;;;;;;;28.39;35.63184;923.9933;;;;
2023/09/21 12:34:41;;;;;;;1.1;0.8;;;;;;;27.74;36.66016;923.9978;;;;
2023/09/21 12:37:06;;;;;;;0.8;0.7;;;;;;;27.58;36.05273;923.9503;;;;
2023/09/21 12:39:31;;;;;;;0.9;0.8;;;;;;;27.75;36.25684;923.9185;;;;
2023/09/21 12:41:59;;;;;;;1.4;0.7;;;;;;;27.91;35.79492;923.8915;;;;
2023/09/21 12:44:23;;;;;;;1.2;0.8;;;;;;;28.19;36.35156;923.8806;;;;
2023/09/21 12:46:50;;;;;;;2;1.1;;;;;;;28.17;36.25488;923.8948;;;;
2023/09/21 12:49:16;;;;;;;1.7;1.1;;;;;;;28.13;37.71387;923.8228;;;;
2023/09/21 12:51:41;;;;;;;1;0.7;;;;;;;28.19;35.94824;923.8014;;;;
2023/09/21 12:54:07;;;;;;;1;0.8;;;;;;;27.49;36.74609;923.8414;;;;
2023/09/21 12:56:32;;;;;;;2;0.8;;;;;;;27.53;37.40332;923.8024;;;;
2023/09/21 12:58:58;;;;;;;1.1;0.8;;;;;;;27.42;38.14063;923.8692;;;;
2023/09/21 13:01:24;;;;;;;1.9;0.8;;;;;;;27.27;38.12793;923.8409;;;;
2023/09/21 13:03:49;;;;;;;0.8;0.7;;;;;;;27.3;37.6084;923.7774;;;;
2023/09/21 13:06:16;;;;;;;1.2;0.7;;;;;;;27.36;38.57422;923.6974;;;;
2023/09/21 13:08:41;;;;;;;1.4;0.9;;;;;;;27.25;38.48242;923.7228;;;;
2023/09/21 13:11:06;;;;;;;1.9;0.7;;;;;;;27.17;37.4668;923.6763;;;;
2023/09/21 13:13:31;;;;;;;2.1;0.8;;;;;;;27.17;37.92969;923.6992;;;;
2023/09/21 13:15:58;;;;;;;1.5;0.7;;;;;;;27.21;37.94531;923.6597;;;;
2023/09/21 13:18:24;;;;;;;0.9;0.7;;;;;;;27.28;38.66211;923.6096;;;;
2023/09/21 13:20:48;;;;;;;1.7;0.8;;;;;;;27.41;38.16309;923.4857;;;;
2023/09/21 13:23:13;;;;;;;1.9;1;;;;;;;27.26;38.96875;923.5637;;;;
2023/09/21 13:25:40;;;;;;;2.5;0.6;;;;;;;27.19;37.84766;923.5309;;;;
2023/09/21 13:28:04;;;;;;;1.5;1;;;;;;;26.97;39.64258;923.5616;;;;
2023/09/21 13:30:29;;;;;;;0.7;0.7;;;;;;;26.94;38.84668;923.512;;;;
2023/09/21 13:32:54;;;;;;;1.1;0.8;;;;;;;27.11;38.88477;923.4398;;;;
2023/09/21 13:35:21;;;;;;;1.5;0.9;;;;;;;26.85;39.67969;923.4753;;;;
2023/09/21 13:37:46;;;;;;;4.1;1.1;;;;;;;26.88;38.49805;923.491;;;;
2023/09/21 13:40:13;;;;;;;1.3;1.2;;;;;;;26.97;38.42188;923.5234;;;;
2023/09/21 13:42:39;;;;;;;1.6;0.8;;;;;;;26.97;38.68359;923.4985;;;;
2023/09/21 13:45:05;;;;;;;1.2;0.9;;;;;;;26.58;38.37695;923.5072;;;;
2023/09/21 13:47:29;;;;;;;2.4;0.8;;;;;;;26.74;39.62305;923.4875;;;;
2023/09/21 13:49:56;;;;;;;1.7;0.6;;;;;;;26.93;38.14551;923.5031;;;;
2023/09/21 13:52:21;;;;;;;1;0.6;;;;;;;26.73;38.68555;923.4243;;;;
2023/09/21 13:54:48;;;;;;;1.1;0.7;;;;;;;26.56;40.03223;923.4199;;;;
2023/09/21 13:57:13;;;;;;;2.6;0.9;;;;;;;26.73;39.13574;923.372;;;;
2023/09/21 13:59:39;;;;;;;1.8;0.7;;;;;;;26.52;38.59668;923.3773;;;;
2023/09/21 14:02:03;;;;;;;2.3;1;;;;;;;26.53;39.87598;923.3428;;;;
2023/09/21 14:04:28;;;;;;;0.9;0.8;;;;;;;26.77;38.70215;923.2842;;;;
2023/09/21 14:06:53;;;;;;;2.4;0.8;;;;;;;26.8;39.60449;923.3405;;;;
2023/09/21 14:09:18;;;;;;;1.8;0.8;;;;;;;26.8;39.5332;923.2823;;;;
2023/09/21 14:11:43;;;;;;;0.9;0.6;;;;;;;26.8;38.64453;923.2294;;;;
2023/09/21 14:14:08;;;;;;;3.5;1.7;;;;;;;27.08;39.06055;923.1917;;;;
2023/09/21 14:16:34;;;;;;;2.5;0.8;;;;;;;26.73;38.89941;923.1256;;;;
2023/09/21 14:18:59;;;;;;;5.8;1.8;;;;;;;26.76;38.9375;923.1281;;;;
2023/09/21 14:21:25;;;;;;;3.5;1;;;;;;;26.81;38.7041;923.1426;;;;